createdAt,value
2023-05-04T00:01:25.146Z,56.10
2023-05-04T00:03:54.660Z,56.22
2023-05-04T00:06:22.730Z,56.84
2023-05-04T00:08:50.814Z,57.43
2023-05-04T00:11:18.662Z,56.44
2023-05-04T00:13:46.518Z,55.32
2023-05-04T00:16:14.478Z,55.19
2023-05-04T00:18:43.725Z,55.68
2023-05-04T00:21:11.733Z,55.28
2023-05-04T00:23:39.593Z,56.71
2023-05-04T00:26:07.475Z,55.79
2023-05-04T00:28:35.341Z,57.43
2023-05-04T00:31:03.559Z,56.64
2023-05-04T00:33:31.490Z,57.43
2023-05-04T00:36:00.737Z,57.04
2023-05-04T00:38:28.659Z,57.23
2023-05-04T00:40:57.924Z,57.49
2023-05-04T00:43:27.214Z,56.78
2023-05-04T00:45:55.141Z,57.32
2023-05-04T00:48:23.331Z,57.32
2023-05-04T00:50:51.148Z,57.89
2023-05-04T00:53:20.440Z,59.25
2023-05-04T00:55:48.431Z,59.08
2023-05-04T00:58:16.635Z,60.06
2023-05-04T01:00:44.750Z,59.92
2023-05-04T01:03:13.033Z,60.16
2023-05-04T01:05:49.777Z,58.78
2023-05-04T01:08:28.281Z,59.59
2023-05-04T01:11:02.271Z,59.03
2023-05-04T01:13:32.635Z,58.03
2023-05-04T01:16:03.045Z,58.97
2023-05-04T01:18:31.181Z,58.69
2023-05-04T01:20:59.047Z,59.20
2023-05-04T01:23:28.590Z,58.30
2023-05-04T01:26:03.921Z,59.66
2023-05-04T01:28:38.699Z,59.29
2023-05-04T01:31:11.332Z,58.59
2023-05-04T01:33:40.245Z,59.93
2023-05-04T01:36:09.134Z,59.34
2023-05-04T01:38:38.379Z,59.01
2023-05-04T01:41:07.576Z,59.31
2023-05-04T01:43:35.769Z,58.83
2023-05-04T01:46:05.524Z,58.66
2023-05-04T01:48:33.555Z,58.56
2023-05-04T01:51:01.441Z,57.65
2023-05-04T01:53:29.329Z,58.27
2023-05-04T01:55:58.598Z,58.35
2023-05-04T01:58:26.510Z,57.89
2023-05-04T02:00:54.404Z,58.23
2023-05-04T02:03:22.759Z,59.33
2023-05-04T02:05:50.761Z,58.30
2023-05-04T02:08:18.637Z,59.37
2023-05-04T02:10:46.558Z,58.98
2023-05-04T02:13:16.041Z,59.29
2023-05-04T02:15:44.031Z,58.48
2023-05-04T02:18:12.196Z,58.43
2023-05-04T02:20:40.190Z,59.32
2023-05-04T02:23:08.165Z,59.37
2023-05-04T02:25:36.106Z,58.80
2023-05-04T02:28:04.071Z,58.33
2023-05-04T02:30:33.322Z,58.36
2023-05-04T02:33:01.437Z,58.01
2023-05-04T02:35:29.652Z,57.39
2023-05-04T02:37:57.557Z,57.32
2023-05-04T02:40:25.654Z,57.50
2023-05-04T02:42:53.862Z,57.76
2023-05-04T02:45:22.148Z,57.43
2023-05-04T02:47:51.637Z,57.72
2023-05-04T02:50:19.857Z,57.76
2023-05-04T02:52:47.723Z,58.10
2023-05-04T02:55:15.819Z,57.44
2023-05-04T02:57:43.760Z,57.99
2023-05-04T03:00:12.658Z,58.60
2023-05-04T03:02:41.050Z,59.30
2023-05-04T03:05:11.135Z,57.98
2023-05-04T03:07:39.047Z,58.05
2023-05-04T03:10:09.216Z,57.83
2023-05-04T03:12:37.221Z,57.62
2023-05-04T03:15:05.562Z,57.28
2023-05-04T03:17:33.480Z,57.53
2023-05-04T03:20:03.097Z,57.77
2023-05-04T03:22:34.525Z,58.29
2023-05-04T03:25:03.862Z,59.06
2023-05-04T03:27:31.892Z,58.26
2023-05-04T03:29:59.962Z,58.03
2023-05-04T03:32:28.070Z,58.45
2023-05-04T03:34:56.060Z,58.95
2023-05-04T03:37:25.945Z,58.64
2023-05-04T03:39:55.249Z,58.05
2023-05-04T03:42:23.563Z,57.91
2023-05-04T03:44:51.590Z,58.21
2023-05-04T03:47:19.478Z,58.96
2023-05-04T03:49:47.954Z,58.59
2023-05-04T03:52:15.942Z,57.91
2023-05-04T03:54:43.913Z,57.29
2023-05-04T03:57:14.251Z,57.46
2023-05-04T03:59:42.431Z,57.96
2023-05-04T04:02:10.469Z,57.40
2023-05-04T04:04:38.472Z,57.19
2023-05-04T04:07:06.938Z,59.20
2023-05-04T04:09:35.316Z,57.99
2023-05-04T04:12:03.329Z,57.25
2023-05-04T04:14:32.604Z,57.24
2023-05-04T04:17:00.577Z,58.18
2023-05-04T04:19:28.567Z,59.08
2023-05-04T04:21:58.286Z,58.57
2023-05-04T04:24:26.223Z,57.63
2023-05-04T04:26:54.209Z,58.01
2023-05-04T04:29:22.124Z,57.75
2023-05-04T04:31:51.533Z,58.15
2023-05-04T04:34:19.826Z,57.94
2023-05-04T04:36:47.725Z,58.05
2023-05-04T04:39:17.038Z,58.51
2023-05-04T04:41:45.048Z,57.54
2023-05-04T04:44:12.977Z,58.05
2023-05-04T04:46:40.984Z,58.25
2023-05-04T04:49:10.335Z,57.65
2023-05-04T04:51:38.382Z,58.60
2023-05-04T04:54:06.284Z,57.52
2023-05-04T04:56:34.191Z,57.35
2023-05-04T04:59:02.160Z,57.55
2023-05-04T05:01:30.301Z,57.76
2023-05-04T05:03:58.300Z,58.83
2023-05-04T05:06:27.541Z,58.52
2023-05-04T05:08:55.463Z,58.05
2023-05-04T05:11:23.436Z,57.17
2023-05-04T05:13:51.610Z,57.03
2023-05-04T05:16:19.555Z,56.98
2023-05-04T05:18:47.916Z,56.81
2023-05-04T05:21:15.912Z,57.04
2023-05-04T05:23:45.220Z,55.80
2023-05-04T05:26:13.196Z,54.67
2023-05-04T05:28:41.376Z,54.26
2023-05-04T05:31:09.678Z,53.40
2023-05-04T05:33:37.734Z,53.33
2023-05-04T05:36:06.100Z,54.32
2023-05-04T05:38:34.076Z,54.34
2023-05-04T05:41:03.332Z,52.51
2023-05-04T05:43:33.347Z,51.61
2023-05-04T05:46:01.329Z,50.79
2023-05-04T05:48:29.284Z,51.49
2023-05-04T05:50:57.188Z,50.07
2023-05-04T05:53:25.104Z,49.65
2023-05-04T05:55:53.072Z,49.33
2023-05-04T05:58:22.593Z,50.06
2023-05-04T06:00:50.536Z,49.79
2023-05-04T06:03:18.492Z,48.05
2023-05-04T06:05:46.449Z,47.99
2023-05-04T06:08:14.416Z,49.47
2023-05-04T06:10:42.986Z,49.95
2023-05-04T06:13:10.912Z,49.92
2023-05-04T06:15:40.306Z,48.99
2023-05-04T06:18:08.259Z,48.65
2023-05-04T06:20:36.207Z,48.61
2023-05-04T06:23:04.079Z,50.42
2023-05-04T06:25:32.125Z,49.62
2023-05-04T06:28:00.121Z,49.24
2023-05-04T06:30:28.068Z,48.64
2023-05-04T06:32:57.582Z,51.02
2023-05-04T06:35:25.720Z,49.03
2023-05-04T06:37:53.658Z,48.10
2023-05-04T06:40:21.517Z,47.96
2023-05-04T06:42:49.427Z,47.32
2023-05-04T06:45:17.572Z,47.49
2023-05-04T06:47:45.739Z,48.25
2023-05-04T06:50:15.870Z,47.13
2023-05-04T06:52:46.342Z,45.73
2023-05-04T06:55:14.850Z,45.62
2023-05-04T06:57:42.851Z,45.91
2023-05-04T07:00:11.966Z,46.80
2023-05-04T07:02:39.871Z,48.25
2023-05-04T07:05:08.473Z,44.86
2023-05-04T07:07:38.208Z,44.55
2023-05-04T07:10:07.220Z,44.82
2023-05-04T07:12:35.377Z,44.42
2023-05-04T07:15:03.413Z,44.63
2023-05-04T07:17:33.559Z,44.81
2023-05-04T07:20:02.395Z,43.94
2023-05-04T07:22:31.193Z,43.61
2023-05-04T07:25:00.501Z,43.84
2023-05-04T07:27:28.499Z,42.30
2023-05-04T07:29:56.447Z,42.65
2023-05-04T07:32:25.020Z,42.46
2023-05-04T07:34:52.990Z,42.57
2023-05-04T07:37:21.037Z,43.88
2023-05-04T07:39:48.952Z,42.55
2023-05-04T07:42:18.197Z,42.77
2023-05-04T07:44:46.123Z,42.19
2023-05-04T07:47:14.035Z,42.14
2023-05-04T07:49:42.109Z,41.56
2023-05-04T07:52:10.105Z,43.31
2023-05-04T07:54:38.293Z,42.64
2023-05-04T07:57:06.279Z,40.71
2023-05-04T07:59:35.610Z,40.55
2023-05-04T08:02:04.377Z,41.20
2023-05-04T08:04:32.522Z,39.83
2023-05-04T08:07:00.754Z,39.76
2023-05-04T08:09:28.671Z,40.41
2023-05-04T08:11:56.612Z,42.48
2023-05-04T08:14:24.545Z,40.77
2023-05-04T08:16:54.136Z,41.13
2023-05-04T08:19:23.820Z,40.03
2023-05-04T08:21:51.789Z,40.49
2023-05-04T08:24:20.007Z,40.86
2023-05-04T08:26:59.743Z,38.43
2023-05-04T08:29:36.256Z,42.09
2023-05-04T08:32:06.448Z,38.22
2023-05-04T08:34:34.466Z,38.31
2023-05-04T08:37:02.712Z,38.04
2023-05-04T08:39:30.786Z,38.26
2023-05-04T08:42:02.236Z,38.32
2023-05-04T08:44:30.764Z,38.34
2023-05-04T08:46:58.832Z,39.89
2023-05-04T08:49:29.174Z,38.91
2023-05-04T08:51:57.548Z,38.75
2023-05-04T08:54:27.311Z,36.65
2023-05-04T08:56:57.037Z,36.03
2023-05-04T08:59:26.578Z,35.90
2023-05-04T09:01:59.401Z,36.23
2023-05-04T09:04:29.842Z,35.40
2023-05-04T09:06:58.710Z,36.19
2023-05-04T09:09:29.687Z,35.37
2023-05-04T09:11:59.012Z,37.85
2023-05-04T09:14:34.043Z,36.33
2023-05-04T09:17:02.554Z,31.88
2023-05-04T09:19:34.738Z,30.86
2023-05-04T09:22:03.159Z,31.17
2023-05-04T09:24:31.913Z,31.43
2023-05-04T09:27:10.934Z,31.72
2023-05-04T09:29:40.620Z,29.73
2023-05-04T09:32:13.345Z,31.89
2023-05-04T09:34:50.571Z,30.82
2023-05-04T09:37:20.824Z,29.77
2023-05-04T09:39:55.774Z,30.10
2023-05-04T09:42:24.731Z,30.17
2023-05-04T09:45:03.976Z,30.86
2023-05-04T09:47:34.376Z,31.94
2023-05-04T09:50:14.303Z,31.24
2023-05-04T09:52:42.984Z,29.85
2023-05-04T09:55:13.588Z,30.79
2023-05-04T09:57:44.710Z,31.41
2023-05-04T10:00:16.127Z,28.80
2023-05-04T10:02:46.511Z,29.80
2023-05-04T10:05:18.511Z,29.15
2023-05-04T10:07:46.813Z,28.37
2023-05-04T10:10:16.548Z,28.89
2023-05-04T10:12:45.604Z,29.96
2023-05-04T10:15:15.019Z,27.24
2023-05-04T10:17:56.286Z,27.90
2023-05-04T10:20:43.903Z,27.54
2023-05-04T10:23:35.679Z,27.33
2023-05-04T10:26:31.868Z,27.09
2023-05-04T10:29:13.445Z,26.33
2023-05-04T10:31:42.126Z,26.36
2023-05-04T10:34:10.779Z,26.36
2023-05-04T10:36:41.834Z,25.47
2023-05-04T10:39:19.533Z,27.01
2023-05-04T10:42:02.567Z,25.54
2023-05-04T10:44:31.824Z,26.89
2023-05-04T10:47:01.665Z,26.43
2023-05-04T10:49:30.389Z,28.04
2023-05-04T10:52:11.435Z,25.75
2023-05-04T10:54:40.960Z,27.34
2023-05-04T10:57:10.245Z,26.35
2023-05-04T10:59:39.004Z,27.11
2023-05-04T11:02:07.955Z,24.36
2023-05-04T11:04:36.470Z,25.68
2023-05-04T11:07:06.344Z,26.85
2023-05-04T11:09:40.112Z,25.73
2023-05-04T11:12:10.479Z,25.61
2023-05-04T11:14:42.516Z,25.03
2023-05-04T11:19:49.634Z,25.32
2023-05-04T11:22:17.695Z,25.30
2023-05-04T11:24:48.598Z,23.77
2023-05-04T11:27:24.313Z,24.32
2023-05-04T11:29:59.649Z,25.43
2023-05-04T11:32:38.026Z,25.06
2023-05-04T11:35:09.659Z,25.01
2023-05-04T11:37:42.012Z,25.74
2023-05-04T11:40:13.379Z,24.99
2023-05-04T11:42:42.961Z,26.09
2023-05-04T11:45:13.575Z,27.98
2023-05-04T11:47:42.030Z,24.87
2023-05-04T11:50:11.798Z,26.91
2023-05-04T11:52:40.958Z,25.24
2023-05-04T11:55:11.892Z,25.88
2023-05-04T11:57:40.388Z,24.74
2023-05-04T12:00:10.279Z,27.19
2023-05-04T12:02:38.321Z,24.91
2023-05-04T12:05:14.146Z,26.51
2023-05-04T12:07:42.224Z,27.99
2023-05-04T12:10:12.309Z,25.29
2023-05-04T12:12:40.816Z,26.02
2023-05-04T12:15:10.767Z,26.40
2023-05-04T12:17:42.581Z,26.65
2023-05-04T12:20:11.228Z,25.34
2023-05-04T12:22:39.642Z,25.78
2023-05-04T12:25:09.335Z,26.13
2023-05-04T12:27:41.838Z,26.23
2023-05-04T12:30:11.161Z,25.90
2023-05-04T12:32:39.510Z,28.84
2023-05-04T12:35:08.351Z,26.84
2023-05-04T12:37:36.590Z,24.66
2023-05-04T12:40:11.307Z,24.63
2023-05-04T12:42:47.002Z,25.72
2023-05-04T12:45:16.302Z,25.63
2023-05-04T12:47:44.288Z,25.94
2023-05-04T12:50:12.296Z,26.48
2023-05-04T12:52:41.305Z,27.04
2023-05-04T12:55:09.659Z,26.36
2023-05-04T12:57:37.875Z,26.09
2023-05-04T13:00:10.201Z,24.66
2023-05-04T13:02:38.455Z,23.44
2023-05-04T13:05:07.649Z,24.58
2023-05-04T13:07:36.312Z,27.14
2023-05-04T13:10:04.821Z,24.89
2023-05-04T13:12:33.104Z,25.18
2023-05-04T13:15:01.347Z,26.70
2023-05-04T13:17:33.786Z,26.69
2023-05-04T13:20:05.965Z,27.53
2023-05-04T13:22:34.459Z,26.03
2023-05-04T13:25:02.546Z,28.06
2023-05-04T13:27:30.708Z,27.82
2023-05-04T13:30:01.072Z,26.89
2023-05-04T13:32:32.135Z,25.75
2023-05-04T13:35:00.288Z,25.74
2023-05-04T13:37:28.292Z,25.16
2023-05-04T13:39:56.596Z,25.04
2023-05-04T13:42:24.613Z,25.99
2023-05-04T13:44:52.671Z,25.50
2023-05-04T13:47:21.195Z,25.69
2023-05-04T13:49:51.060Z,25.70
2023-05-04T13:52:19.048Z,25.48
2023-05-04T13:54:47.205Z,26.24
2023-05-04T13:57:15.288Z,26.11
2023-05-04T13:59:51.607Z,25.82
2023-05-04T14:02:27.033Z,26.10
2023-05-04T14:04:56.539Z,26.24
2023-05-04T14:07:24.633Z,25.24
2023-05-04T14:09:52.667Z,26.28
2023-05-04T14:12:22.461Z,26.39
2023-05-04T14:14:50.828Z,27.94
2023-05-04T14:17:19.071Z,25.91
2023-05-04T14:19:47.010Z,27.11
2023-05-04T14:22:16.465Z,25.77
2023-05-04T14:24:44.432Z,26.38
2023-05-04T14:27:12.381Z,25.83
2023-05-04T14:29:40.349Z,26.54
2023-05-04T14:32:08.439Z,25.92
2023-05-04T14:34:37.210Z,28.57
2023-05-04T14:37:05.336Z,26.73
2023-05-04T14:39:34.693Z,28.26
2023-05-04T14:42:02.721Z,27.61
2023-05-04T14:44:30.710Z,27.35
2023-05-04T14:46:58.755Z,27.28
2023-05-04T14:49:36.734Z,26.09
2023-05-04T14:52:05.862Z,27.24
2023-05-04T14:54:35.180Z,27.53
2023-05-04T14:57:03.378Z,26.25
2023-05-04T14:59:31.404Z,26.21
2023-05-04T15:01:59.359Z,25.46
2023-05-04T15:04:27.363Z,25.70
2023-05-04T15:06:55.444Z,25.53
2023-05-04T15:09:23.418Z,25.91
2023-05-04T15:11:52.919Z,26.51
2023-05-04T15:14:21.150Z,25.33
2023-05-04T15:16:49.131Z,25.02
2023-05-04T15:19:17.089Z,25.10
2023-05-04T15:21:45.081Z,25.44
2023-05-04T15:24:13.121Z,25.75
2023-05-04T15:26:41.168Z,26.31
2023-05-04T15:29:10.572Z,25.80
2023-05-04T15:31:39.566Z,26.24
2023-05-04T15:34:07.631Z,25.98
2023-05-04T15:36:35.585Z,25.99
2023-05-04T15:39:05.405Z,27.78
2023-05-04T15:41:33.383Z,27.32
2023-05-04T15:44:02.501Z,27.84
2023-05-04T15:46:31.896Z,27.59
2023-05-04T15:48:59.917Z,27.40
2023-05-04T15:51:29.701Z,26.30
2023-05-04T15:53:57.722Z,25.23
2023-05-04T15:56:25.691Z,25.93
2023-05-04T15:58:53.632Z,26.54
2023-05-04T16:01:21.659Z,26.13
2023-05-04T16:03:51.325Z,26.25
2023-05-04T16:06:19.400Z,25.97
2023-05-04T16:08:47.907Z,27.09
2023-05-04T16:11:15.814Z,26.50
2023-05-04T16:13:43.828Z,26.65
2023-05-04T16:16:11.740Z,25.95
2023-05-04T16:18:40.245Z,26.19
2023-05-04T16:21:10.159Z,26.86
2023-05-04T16:23:38.482Z,26.04
2023-05-04T16:26:06.418Z,26.19
2023-05-04T16:28:36.039Z,26.00
2023-05-04T16:31:05.392Z,26.62
2023-05-04T16:33:33.681Z,28.41
2023-05-04T16:36:01.611Z,27.82
2023-05-04T16:38:30.916Z,26.93
2023-05-04T16:40:59.066Z,26.80
2023-05-04T16:43:27.026Z,26.89
2023-05-04T16:45:54.970Z,28.69
2023-05-04T16:48:22.991Z,26.52
2023-05-04T16:50:50.938Z,26.14
2023-05-04T16:53:19.078Z,28.09
2023-05-04T16:55:48.535Z,26.80
2023-05-04T16:58:16.445Z,27.27
2023-05-04T17:00:44.781Z,27.10
2023-05-04T17:03:12.827Z,27.01
2023-05-04T17:05:40.945Z,26.83
2023-05-04T17:08:08.878Z,27.26
2023-05-04T17:10:36.849Z,27.35
2023-05-04T17:13:07.557Z,27.23
2023-05-04T17:15:35.560Z,26.89
2023-05-04T17:18:03.536Z,27.07
2023-05-04T17:20:32.219Z,28.34
2023-05-04T17:23:00.471Z,27.69
2023-05-04T17:25:28.674Z,28.72
2023-05-04T17:27:56.851Z,27.82
2023-05-04T17:30:26.480Z,26.86
2023-05-04T17:32:57.066Z,27.55
2023-05-04T17:35:26.728Z,27.20
2023-05-04T17:37:58.018Z,27.88
2023-05-04T17:40:27.218Z,27.22
2023-05-04T17:42:55.504Z,27.44
2023-05-04T17:45:23.559Z,27.15
2023-05-04T17:47:53.463Z,27.31
2023-05-04T17:50:21.749Z,27.77
2023-05-04T17:52:52.854Z,28.27
2023-05-04T17:55:21.051Z,27.70
2023-05-04T17:57:49.113Z,28.09
2023-05-04T18:00:17.628Z,28.18
2023-05-04T18:02:45.637Z,27.93
2023-05-04T18:05:15.155Z,28.70
2023-05-04T18:07:43.330Z,28.41
2023-05-04T18:10:12.185Z,28.17
2023-05-04T18:12:40.383Z,30.13
2023-05-04T18:15:09.635Z,28.19
2023-05-04T18:17:38.796Z,28.70
2023-05-04T18:20:09.019Z,28.89
2023-05-04T18:22:38.672Z,29.05
2023-05-04T18:25:07.748Z,28.58
2023-05-04T18:27:36.574Z,30.94
2023-05-04T18:30:06.226Z,30.34
2023-05-04T18:32:34.658Z,31.33
2023-05-04T18:35:03.347Z,30.14
2023-05-04T18:37:31.606Z,31.23
2023-05-04T18:40:01.259Z,32.17
2023-05-04T18:42:29.523Z,30.24
2023-05-04T18:44:57.584Z,30.39
2023-05-04T18:47:25.512Z,31.56
2023-05-04T18:49:54.596Z,33.19
2023-05-04T18:52:22.955Z,34.37
2023-05-04T18:54:51.159Z,34.73
2023-05-04T18:57:20.522Z,34.68
2023-05-04T18:59:48.508Z,34.99
2023-05-04T19:02:16.487Z,35.42
2023-05-04T19:04:46.875Z,35.52
2023-05-04T19:07:15.379Z,35.25
2023-05-04T19:09:43.411Z,35.06
2023-05-04T19:12:11.354Z,35.93
2023-05-04T19:14:42.966Z,35.51
2023-05-04T19:17:11.049Z,35.24
2023-05-04T19:19:39.100Z,35.53
2023-05-04T19:22:07.552Z,35.24
2023-05-04T19:24:37.663Z,35.51
2023-05-04T19:27:05.879Z,35.27
2023-05-04T19:29:33.833Z,35.20
2023-05-04T19:32:11.961Z,35.09
2023-05-04T19:34:48.179Z,34.60
2023-05-04T19:37:16.304Z,35.03
2023-05-04T19:39:44.284Z,34.79
2023-05-04T19:42:12.331Z,34.99
2023-05-04T19:44:40.238Z,35.15
2023-05-04T19:47:10.104Z,34.61
2023-05-04T19:49:38.059Z,34.92
2023-05-04T19:52:06.948Z,34.62
2023-05-04T19:54:35.622Z,34.55
2023-05-04T19:57:03.594Z,34.71
2023-05-04T19:59:32.809Z,34.69
2023-05-04T20:02:00.881Z,34.61
2023-05-04T20:04:30.218Z,34.75
2023-05-04T20:06:58.215Z,35.51
2023-05-04T20:09:26.759Z,35.49
2023-05-04T20:11:54.719Z,35.18
2023-05-04T20:14:22.661Z,35.31
2023-05-04T20:16:51.273Z,35.28
2023-05-04T20:19:19.263Z,35.28
2023-05-04T20:21:48.713Z,35.08
2023-05-04T20:24:17.219Z,35.00
2023-05-04T20:26:45.201Z,35.26
2023-05-04T20:29:13.192Z,35.21
2023-05-04T20:31:42.240Z,35.11
2023-05-04T20:34:10.237Z,35.48
2023-05-04T20:36:38.157Z,35.48
2023-05-04T20:39:07.692Z,35.65
2023-05-04T20:41:35.629Z,36.22
2023-05-04T20:44:04.350Z,37.08
2023-05-04T20:46:32.955Z,37.03
2023-05-04T20:49:02.866Z,36.90
2023-05-04T20:51:31.149Z,37.25
2023-05-04T20:53:59.263Z,37.84
2023-05-04T20:56:28.722Z,37.91
2023-05-04T20:58:56.736Z,38.19
2023-05-04T21:01:24.751Z,38.68
2023-05-04T21:03:52.903Z,39.09
2023-05-04T21:06:20.995Z,39.13
2023-05-04T21:08:48.903Z,38.82
2023-05-04T21:11:16.908Z,40.11
2023-05-04T21:13:46.254Z,40.33
2023-05-04T21:16:14.288Z,40.82
2023-05-04T21:18:44.749Z,40.32
2023-05-04T21:21:12.946Z,41.00
2023-05-04T21:23:40.861Z,40.77
2023-05-04T21:26:08.848Z,41.19
2023-05-04T21:28:36.781Z,41.06
2023-05-04T21:31:09.249Z,41.69
2023-05-04T21:33:37.476Z,41.66
2023-05-04T21:36:12.758Z,41.88
2023-05-04T21:38:40.749Z,41.28
2023-05-04T21:41:12.870Z,41.66
2023-05-04T21:43:41.096Z,41.99
2023-05-04T21:46:12.057Z,41.46
2023-05-04T21:48:40.919Z,41.40
2023-05-04T21:51:09.444Z,41.51
2023-05-04T21:53:37.873Z,42.12
2023-05-04T21:56:10.716Z,41.37
2023-05-04T21:58:41.021Z,42.55
2023-05-04T22:01:11.034Z,42.07
2023-05-04T22:03:39.030Z,41.81
2023-05-04T22:06:07.512Z,42.96
2023-05-04T22:08:35.744Z,42.79
2023-05-04T22:11:03.721Z,42.42
2023-05-04T22:13:31.688Z,43.44
2023-05-04T22:15:59.635Z,43.56
2023-05-04T22:18:28.982Z,43.29
2023-05-04T22:20:56.960Z,44.16
2023-05-04T22:23:24.887Z,44.81
2023-05-04T22:25:52.810Z,44.67
2023-05-04T22:28:20.851Z,45.37
2023-05-04T22:30:48.830Z,45.08
2023-05-04T22:33:16.782Z,45.98
2023-05-04T22:35:46.136Z,45.76
2023-05-04T22:38:14.689Z,46.00
2023-05-04T22:40:43.835Z,45.96
2023-05-04T22:43:11.960Z,46.07
2023-05-04T22:45:40.225Z,46.61
2023-05-04T22:48:08.215Z,48.05
2023-05-04T22:50:36.159Z,47.78
2023-05-04T22:53:05.672Z,47.47
2023-05-04T22:55:34.006Z,47.29
2023-05-04T22:58:02.087Z,47.96
2023-05-04T23:00:30.465Z,47.76
2023-05-04T23:02:58.464Z,47.98
2023-05-04T23:05:26.795Z,48.74
2023-05-04T23:07:54.749Z,48.97
2023-05-04T23:10:24.297Z,49.14
2023-05-04T23:12:52.241Z,49.08
2023-05-04T23:15:20.388Z,49.33
2023-05-04T23:17:48.499Z,50.58
2023-05-04T23:20:16.834Z,49.21
2023-05-04T23:22:44.797Z,49.33
2023-05-04T23:25:12.765Z,49.62
2023-05-04T23:27:42.121Z,50.57
2023-05-04T23:30:10.773Z,49.37
2023-05-04T23:32:38.992Z,49.30
2023-05-04T23:35:08.096Z,50.06
2023-05-04T23:37:36.213Z,49.91
2023-05-04T23:40:04.673Z,50.12
2023-05-04T23:42:32.655Z,50.30
2023-05-04T23:45:01.990Z,50.09
2023-05-04T23:47:29.942Z,50.15
2023-05-04T23:49:57.893Z,50.22
2023-05-04T23:52:26.063Z,50.35
2023-05-04T23:54:54.586Z,50.19
2023-05-04T23:57:22.502Z,50.17
2023-05-04T23:59:50.410Z,49.60
